createdAt,value
2018-12-06T00:01:05.103Z,84.30
2018-12-06T00:03:33.770Z,84.40
2018-12-06T00:06:02.279Z,84.40
2018-12-06T00:08:30.795Z,84.40
2018-12-06T00:10:59.267Z,85.40
2018-12-06T00:13:27.771Z,84.60
2018-12-06T00:15:56.259Z,84.80
2018-12-06T00:18:24.767Z,84.80
2018-12-06T00:20:53.291Z,84.90
2018-12-06T00:23:21.774Z,85.10
2018-12-06T00:25:50.263Z,85.20
2018-12-06T00:28:18.739Z,85.20
2018-12-06T00:30:47.226Z,85.20
2018-12-06T00:33:15.726Z,85.20
2018-12-06T00:35:44.218Z,85.20
2018-12-06T00:38:12.710Z,85.40
2018-12-06T00:40:41.195Z,86.10
2018-12-06T00:43:09.702Z,85.70
2018-12-06T00:45:38.198Z,85.40
2018-12-06T00:48:06.703Z,85.50
2018-12-06T00:50:35.170Z,85.60
2018-12-06T00:53:03.650Z,85.60
2018-12-06T00:55:32.182Z,85.70
2018-12-06T00:58:01.494Z,85.90
2018-12-06T01:00:30.085Z,85.90
2018-12-06T01:02:58.549Z,85.90
2018-12-06T01:05:27.022Z,85.90
2018-12-06T01:07:55.493Z,85.90
2018-12-06T01:10:23.973Z,85.80
2018-12-06T01:12:52.477Z,85.80
2018-12-06T01:15:20.957Z,85.80
2018-12-06T01:17:52.932Z,85.70
2018-12-06T01:20:21.433Z,85.70
2018-12-06T01:22:49.921Z,85.70
2018-12-06T01:25:19.416Z,85.80
2018-12-06T01:27:48.048Z,85.70
2018-12-06T01:30:16.898Z,85.70
2018-12-06T01:32:45.384Z,85.80
2018-12-06T01:35:13.891Z,85.60
2018-12-06T01:37:42.369Z,85.60
2018-12-06T01:40:10.972Z,85.60
2018-12-06T01:42:39.477Z,85.60
2018-12-06T01:45:09.772Z,85.60
2018-12-06T01:47:38.270Z,85.60
2018-12-06T01:50:07.145Z,85.60
2018-12-06T01:52:35.684Z,85.60
2018-12-06T01:55:04.455Z,85.50
2018-12-06T01:57:33.048Z,85.60
2018-12-06T02:00:01.528Z,85.60
2018-12-06T02:02:30.036Z,85.60
2018-12-06T02:04:58.540Z,85.70
2018-12-06T02:07:27.039Z,85.90
2018-12-06T02:09:55.559Z,86.10
2018-12-06T02:12:24.049Z,86.30
2018-12-06T02:14:52.587Z,86.40
2018-12-06T02:17:21.075Z,86.30
2018-12-06T02:19:49.543Z,86.50
2018-12-06T02:22:18.023Z,86.60
2018-12-06T02:24:46.550Z,86.70
2018-12-06T02:27:15.024Z,86.90
2018-12-06T02:29:48.959Z,86.70
2018-12-06T02:32:17.446Z,86.80
2018-12-06T02:34:45.923Z,86.90
2018-12-06T02:37:14.442Z,87.00
2018-12-06T02:39:42.984Z,87.00
2018-12-06T02:42:11.490Z,87.10
2018-12-06T02:44:40.116Z,87.20
2018-12-06T02:47:08.603Z,87.20
2018-12-06T02:49:37.122Z,87.30
2018-12-06T02:52:05.611Z,87.30
2018-12-06T02:54:34.122Z,87.30
2018-12-06T02:57:02.658Z,87.40
2018-12-06T02:59:31.190Z,87.50
2018-12-06T03:01:59.679Z,87.60
2018-12-06T03:04:28.170Z,87.70
2018-12-06T03:06:56.687Z,87.70
2018-12-06T03:09:25.170Z,87.60
2018-12-06T03:11:53.658Z,87.70
2018-12-06T03:14:22.135Z,87.80
2018-12-06T03:16:50.747Z,87.80
2018-12-06T03:19:19.207Z,87.80
2018-12-06T03:21:47.702Z,88.50
2018-12-06T03:24:16.175Z,87.70
2018-12-06T03:26:44.686Z,87.80
2018-12-06T03:29:13.169Z,87.70
2018-12-06T03:31:41.800Z,87.40
2018-12-06T03:34:10.563Z,87.80
2018-12-06T03:36:39.082Z,87.80
2018-12-06T03:39:08.127Z,88.70
2018-12-06T03:41:36.634Z,87.80
2018-12-06T03:44:05.249Z,87.80
2018-12-06T03:46:33.728Z,87.80
2018-12-06T03:49:02.224Z,87.70
2018-12-06T03:51:30.990Z,87.70
2018-12-06T03:53:59.461Z,87.80
2018-12-06T03:56:27.945Z,87.80
2018-12-06T03:58:56.430Z,87.70
2018-12-06T04:01:24.921Z,87.80
2018-12-06T04:03:53.401Z,87.70
2018-12-06T04:06:21.898Z,87.60
2018-12-06T04:08:50.361Z,87.60
2018-12-06T04:11:18.857Z,87.60
2018-12-06T04:13:47.363Z,87.60
2018-12-06T04:16:15.866Z,87.50
2018-12-06T04:18:44.367Z,87.60
2018-12-06T04:21:12.864Z,87.50
2018-12-06T04:23:41.352Z,87.40
2018-12-06T04:26:09.855Z,87.40
2018-12-06T04:28:38.322Z,87.40
2018-12-06T04:31:06.826Z,87.40
2018-12-06T04:33:35.318Z,87.30
2018-12-06T04:36:03.797Z,87.40
2018-12-06T04:38:32.274Z,87.40
2018-12-06T04:41:00.758Z,87.40
2018-12-06T04:43:29.312Z,87.40
2018-12-06T04:45:57.834Z,87.30
2018-12-06T04:48:26.303Z,87.30
2018-12-06T04:50:54.897Z,87.40
2018-12-06T04:53:23.431Z,87.40
2018-12-06T04:55:51.925Z,87.40
2018-12-06T04:58:20.448Z,87.30
2018-12-06T05:00:48.938Z,88.20
2018-12-06T05:03:17.427Z,87.30
2018-12-06T05:05:45.936Z,87.30
2018-12-06T05:08:14.463Z,87.30
2018-12-06T05:10:42.957Z,86.60
2018-12-06T05:13:11.475Z,87.30
2018-12-06T05:15:39.972Z,87.30
2018-12-06T05:18:08.459Z,87.30
2018-12-06T05:20:36.984Z,87.40
2018-12-06T05:23:05.495Z,87.30
2018-12-06T05:25:34.527Z,87.30
2018-12-06T05:28:03.030Z,87.40
2018-12-06T05:30:31.513Z,87.30
2018-12-06T05:33:00.023Z,87.90
2018-12-06T05:35:28.508Z,87.30
2018-12-06T05:37:57.023Z,87.40
2018-12-06T05:40:25.518Z,87.40
2018-12-06T05:42:54.032Z,87.50
2018-12-06T05:45:22.634Z,87.50
2018-12-06T05:47:51.191Z,87.50
2018-12-06T05:50:19.742Z,87.50
2018-12-06T05:52:48.218Z,87.60
2018-12-06T05:55:16.714Z,87.60
2018-12-06T05:57:45.207Z,87.60
2018-12-06T06:00:13.682Z,87.60
2018-12-06T06:02:42.170Z,87.60
2018-12-06T06:05:10.762Z,87.70
2018-12-06T06:07:39.285Z,87.70
2018-12-06T06:10:07.898Z,87.70
2018-12-06T06:12:36.393Z,87.70
2018-12-06T06:15:05.341Z,87.70
2018-12-06T06:17:33.857Z,87.70
2018-12-06T06:20:02.465Z,87.70
2018-12-06T06:22:30.949Z,87.70
2018-12-06T06:24:59.413Z,87.70
2018-12-06T06:27:27.914Z,88.50
2018-12-06T06:29:56.478Z,87.70
2018-12-06T06:32:24.979Z,87.80
2018-12-06T06:34:53.545Z,87.70
2018-12-06T06:37:22.040Z,87.80
2018-12-06T06:39:50.549Z,87.80
2018-12-06T06:42:19.067Z,87.80
2018-12-06T06:44:47.562Z,87.90
2018-12-06T06:47:16.061Z,87.90
2018-12-06T06:49:44.554Z,87.80
2018-12-06T06:52:13.065Z,87.90
2018-12-06T06:54:41.557Z,87.90
2018-12-06T06:57:10.048Z,87.90
2018-12-06T06:59:38.571Z,87.90
2018-12-06T07:02:07.068Z,88.00
2018-12-06T07:04:35.561Z,88.00
2018-12-06T07:07:04.089Z,88.00
2018-12-06T07:09:32.572Z,88.00
2018-12-06T07:12:01.072Z,88.10
2018-12-06T07:14:29.960Z,88.10
2018-12-06T07:16:58.437Z,88.10
2018-12-06T07:19:27.005Z,88.10
2018-12-06T07:21:55.492Z,88.10
2018-12-06T07:24:23.992Z,88.10
2018-12-06T07:26:52.503Z,88.10
2018-12-06T07:29:21.044Z,88.10
2018-12-06T07:31:49.552Z,88.20
2018-12-06T07:34:18.089Z,88.30
2018-12-06T07:36:46.636Z,88.20
2018-12-06T07:39:15.152Z,88.20
2018-12-06T07:41:43.684Z,88.30
2018-12-06T07:44:12.300Z,88.30
2018-12-06T07:46:40.824Z,88.30
2018-12-06T07:49:09.328Z,88.40
2018-12-06T07:51:37.868Z,88.40
2018-12-06T07:54:06.388Z,88.40
2018-12-06T07:56:34.956Z,88.40
2018-12-06T07:59:03.616Z,88.40
2018-12-06T08:01:32.122Z,88.50
2018-12-06T08:04:00.625Z,88.60
2018-12-06T08:06:29.132Z,88.60
2018-12-06T08:08:57.639Z,88.60
2018-12-06T08:11:26.155Z,88.60
2018-12-06T08:13:54.659Z,88.70
2018-12-06T08:16:23.155Z,88.70
2018-12-06T08:18:51.852Z,88.80
2018-12-06T08:21:20.347Z,88.80
2018-12-06T08:23:48.860Z,88.80
2018-12-06T08:26:17.394Z,88.80
2018-12-06T08:28:46.088Z,89.10
2018-12-06T08:31:14.691Z,89.00
2018-12-06T08:33:43.199Z,88.90
2018-12-06T08:36:11.667Z,89.00
2018-12-06T08:38:40.178Z,89.00
2018-12-06T08:41:08.787Z,89.00
2018-12-06T08:43:37.267Z,89.00
2018-12-06T08:46:05.771Z,89.00
2018-12-06T08:48:34.297Z,89.00
2018-12-06T08:51:02.811Z,88.80
2018-12-06T08:53:31.290Z,88.90
2018-12-06T08:55:59.903Z,88.80
2018-12-06T08:58:28.498Z,88.70
2018-12-06T09:00:57.078Z,88.60
2018-12-06T09:03:25.683Z,88.60
2018-12-06T09:05:54.264Z,88.60
2018-12-06T09:08:22.987Z,88.60
2018-12-06T09:10:51.985Z,88.40
2018-12-06T09:13:24.230Z,88.40
2018-12-06T09:15:52.822Z,88.30
2018-12-06T09:18:21.430Z,88.20
2018-12-06T09:20:50.026Z,88.10
2018-12-06T09:23:18.610Z,88.20
2018-12-06T09:25:47.194Z,88.20
2018-12-06T09:28:15.806Z,88.00
2018-12-06T09:30:44.410Z,87.90
2018-12-06T09:33:13.022Z,87.90
2018-12-06T09:35:41.630Z,87.70
2018-12-06T09:38:10.246Z,88.50
2018-12-06T09:40:39.070Z,87.60
2018-12-06T09:43:07.842Z,87.50
2018-12-06T09:45:36.602Z,87.40
2018-12-06T09:48:05.202Z,87.50
2018-12-06T09:50:33.978Z,87.40
2018-12-06T09:53:02.718Z,87.40
2018-12-06T09:55:31.391Z,87.30
2018-12-06T09:58:00.030Z,87.20
2018-12-06T10:00:28.655Z,87.20
2018-12-06T10:02:57.262Z,87.20
2018-12-06T10:05:25.894Z,87.20
2018-12-06T10:07:54.529Z,87.00
2018-12-06T10:10:23.270Z,86.90
2018-12-06T10:12:51.889Z,86.90
2018-12-06T10:15:20.602Z,86.90
2018-12-06T10:17:49.206Z,86.80
2018-12-06T10:20:17.826Z,86.70
2018-12-06T10:22:46.438Z,86.80
2018-12-06T10:25:15.762Z,86.20
2018-12-06T10:27:44.379Z,86.70
2018-12-06T10:30:13.009Z,86.60
2018-12-06T10:32:41.606Z,86.60
2018-12-06T10:35:10.269Z,86.60
2018-12-06T10:37:38.873Z,86.50
2018-12-06T10:40:07.554Z,86.40
2018-12-06T10:42:36.165Z,86.50
2018-12-06T10:45:05.925Z,86.30
2018-12-06T10:47:34.517Z,86.30
2018-12-06T10:50:03.469Z,86.00
2018-12-06T10:52:32.123Z,86.00
2018-12-06T10:55:00.734Z,85.90
2018-12-06T10:57:29.476Z,85.80
2018-12-06T10:59:59.059Z,85.70
2018-12-06T11:02:30.549Z,85.70
2018-12-06T11:04:59.146Z,85.70
2018-12-06T11:07:27.803Z,85.80
2018-12-06T11:09:56.577Z,85.80
2018-12-06T11:12:25.993Z,85.60
2018-12-06T11:14:54.598Z,85.60
2018-12-06T11:17:23.207Z,85.60
2018-12-06T11:19:51.797Z,85.60
2018-12-06T11:22:20.398Z,85.60
2018-12-06T11:24:48.998Z,85.50
2018-12-06T11:27:17.621Z,85.40
2018-12-06T11:29:46.200Z,85.40
2018-12-06T11:37:31.809Z,85.30
2018-12-06T11:40:00.500Z,85.30
2018-12-06T11:42:29.187Z,85.20
2018-12-06T11:44:57.853Z,86.00
2018-12-06T11:47:26.514Z,85.20
2018-12-06T11:50:45.867Z,85.10
2018-12-06T11:53:14.568Z,85.00
2018-12-06T11:55:43.223Z,85.10
2018-12-06T11:58:11.945Z,85.00
2018-12-06T12:07:50.211Z,84.80
2018-12-06T12:10:18.882Z,84.60
2018-12-06T12:12:47.559Z,84.50
2018-12-06T12:15:16.242Z,84.50
2018-12-06T12:17:49.830Z,85.20
2018-12-06T12:20:18.487Z,84.40
2018-12-06T12:22:47.143Z,84.30
2018-12-06T12:25:15.822Z,84.30
2018-12-06T12:27:44.484Z,84.30
2018-12-06T12:30:13.490Z,84.00
2018-12-06T12:32:42.174Z,83.90
2018-12-06T12:35:11.615Z,83.90
2018-12-06T12:37:40.490Z,83.90
2018-12-06T12:40:11.431Z,83.90
2018-12-06T12:42:40.110Z,83.70
2018-12-06T12:45:09.070Z,83.70
2018-12-06T12:47:37.705Z,83.60
2018-12-06T12:50:08.190Z,83.60
2018-12-06T12:52:36.870Z,83.50
2018-12-06T12:55:06.196Z,83.50
2018-12-06T12:57:34.962Z,83.40
2018-12-06T13:00:04.282Z,83.40
2018-12-06T13:02:32.938Z,83.30
2018-12-06T13:05:01.602Z,83.20
2018-12-06T13:07:30.289Z,83.20
2018-12-06T13:09:58.950Z,83.10
2018-12-06T13:12:27.814Z,83.10
2018-12-06T13:14:56.494Z,83.00
2018-12-06T13:17:25.161Z,82.90
2018-12-06T13:19:53.825Z,83.60
2018-12-06T13:22:22.654Z,82.80
2018-12-06T13:24:51.413Z,82.80
2018-12-06T13:27:20.089Z,82.70
2018-12-06T13:29:48.792Z,82.70
2018-12-06T13:32:17.605Z,82.70
2018-12-06T13:34:46.301Z,82.70
2018-12-06T13:37:14.956Z,82.60
2018-12-06T13:39:43.773Z,82.60
2018-12-06T13:42:12.453Z,82.60
2018-12-06T13:44:41.137Z,82.60
2018-12-06T13:47:09.793Z,82.50
2018-12-06T13:49:38.425Z,82.50
2018-12-06T13:52:07.145Z,82.50
2018-12-06T13:54:35.820Z,82.50
2018-12-06T13:57:04.642Z,82.40
2018-12-06T13:59:33.313Z,82.40
2018-12-06T14:02:01.964Z,82.30
2018-12-06T14:04:30.639Z,82.20
2018-12-06T14:06:59.344Z,82.20
2018-12-06T14:09:28.014Z,82.10
2018-12-06T14:11:57.280Z,82.10
2018-12-06T14:14:25.936Z,82.00
2018-12-06T14:16:54.616Z,81.90
2018-12-06T14:19:23.288Z,81.80
2018-12-06T14:21:51.952Z,81.70
2018-12-06T14:24:20.640Z,81.60
2018-12-06T14:26:49.327Z,81.50
2018-12-06T14:29:17.971Z,81.50
2018-12-06T14:31:46.732Z,81.50
2018-12-06T14:34:15.386Z,81.50
2018-12-06T14:36:44.085Z,81.40
2018-12-06T14:39:12.773Z,81.40
2018-12-06T14:41:41.437Z,81.30
2018-12-06T14:44:10.090Z,81.20
2018-12-06T14:46:38.727Z,81.20
2018-12-06T14:49:07.429Z,81.20
2018-12-06T14:51:36.113Z,81.20
2018-12-06T14:54:04.785Z,81.20
2018-12-06T14:56:33.485Z,81.10
2018-12-06T14:59:02.181Z,81.00
2018-12-06T15:01:30.833Z,80.90
2018-12-06T15:03:59.533Z,80.90
2018-12-06T15:06:28.221Z,80.80
2018-12-06T15:08:56.869Z,80.80
2018-12-06T15:11:25.597Z,80.80
2018-12-06T15:13:54.251Z,80.80
2018-12-06T15:16:26.733Z,80.80
2018-12-06T15:18:55.328Z,80.60
2018-12-06T15:21:23.918Z,80.50
2018-12-06T15:23:52.462Z,80.50
2018-12-06T15:26:21.013Z,80.50
2018-12-06T15:28:49.534Z,80.40
2018-12-06T15:31:18.073Z,80.40
2018-12-06T15:33:46.630Z,80.40
2018-12-06T15:36:15.229Z,80.30
2018-12-06T15:38:43.761Z,80.30
2018-12-06T15:41:13.081Z,80.20
2018-12-06T15:43:41.637Z,80.10
2018-12-06T15:46:10.248Z,80.00
2018-12-06T15:48:38.813Z,80.00
2018-12-06T15:51:07.369Z,80.10
2018-12-06T15:53:35.949Z,80.10
2018-12-06T15:56:04.661Z,80.00
2018-12-06T15:58:33.332Z,80.00
2018-12-06T16:01:01.863Z,80.00
2018-12-06T16:03:30.405Z,80.00
2018-12-06T16:05:58.988Z,79.90
2018-12-06T16:08:27.561Z,79.90
2018-12-06T16:10:56.145Z,79.80
2018-12-06T16:13:24.709Z,79.70
2018-12-06T16:15:53.385Z,79.70
2018-12-06T16:18:22.004Z,79.60
2018-12-06T16:20:50.564Z,79.60
2018-12-06T16:23:57.597Z,79.50
2018-12-06T16:26:26.272Z,79.50
2018-12-06T16:28:54.824Z,79.50
2018-12-06T16:31:23.389Z,79.50
2018-12-06T16:33:52.056Z,79.40
2018-12-06T16:36:20.668Z,79.50
2018-12-06T16:38:49.233Z,79.40
2018-12-06T16:41:17.807Z,79.30
2018-12-06T16:43:46.352Z,79.30
2018-12-06T16:46:14.927Z,79.20
2018-12-06T16:48:44.148Z,79.10
2018-12-06T16:51:13.091Z,79.20
2018-12-06T16:53:42.291Z,79.20
2018-12-06T16:56:11.223Z,79.10
2018-12-06T16:58:40.221Z,79.20
2018-12-06T17:01:08.839Z,79.10
2018-12-06T17:03:37.771Z,79.10
2018-12-06T17:06:06.777Z,79.10
2018-12-06T17:08:35.761Z,79.10
2018-12-06T17:11:04.876Z,79.30
2018-12-06T17:13:33.483Z,79.30
2018-12-06T17:16:02.557Z,79.30
2018-12-06T17:18:31.199Z,79.40
2018-12-06T17:21:00.231Z,79.40
2018-12-06T17:23:29.560Z,79.30
2018-12-06T17:25:58.535Z,79.40
2018-12-06T17:28:27.271Z,79.40
2018-12-06T17:30:56.211Z,79.50
2018-12-06T17:33:25.206Z,79.50
2018-12-06T17:35:54.190Z,79.60
2018-12-06T17:38:23.183Z,79.70
2018-12-06T17:40:52.196Z,80.50
2018-12-06T17:43:21.143Z,79.90
2018-12-06T17:45:50.067Z,80.00
2018-12-06T17:48:19.002Z,80.10
2018-12-06T17:50:47.611Z,80.30
2018-12-06T17:53:16.175Z,80.40
2018-12-06T17:55:55.188Z,80.70
2018-12-06T17:58:24.138Z,80.90
2018-12-06T18:00:53.038Z,81.90
2018-12-06T18:03:21.682Z,81.20
2018-12-06T18:05:50.351Z,81.40
2018-12-06T18:08:18.874Z,81.60
2018-12-06T18:10:47.566Z,81.80
2018-12-06T18:13:16.154Z,82.00
2018-12-06T18:15:45.171Z,82.20
2018-12-06T18:18:14.346Z,82.30
2018-12-06T18:20:43.018Z,82.60
2018-12-06T18:23:11.723Z,82.70
2018-12-06T18:25:40.251Z,82.90
2018-12-06T18:28:08.826Z,83.20
2018-12-06T18:30:37.390Z,83.30
2018-12-06T18:33:05.930Z,83.50
2018-12-06T18:35:34.459Z,83.70
2018-12-06T18:38:03.002Z,83.90
2018-12-06T18:40:31.633Z,84.10
2018-12-06T18:43:00.181Z,84.20
2018-12-06T18:45:28.710Z,84.30
2018-12-06T18:47:57.221Z,84.40
2018-12-06T18:50:25.833Z,84.70
2018-12-06T18:52:54.499Z,84.80
2018-12-06T18:55:23.057Z,84.80
2018-12-06T18:57:51.617Z,85.10
2018-12-06T19:00:20.189Z,85.20
2018-12-06T19:02:48.738Z,85.20
2018-12-06T19:05:17.329Z,85.30
2018-12-06T19:07:45.874Z,85.40
2018-12-06T19:10:14.557Z,85.40
2018-12-06T19:12:43.815Z,85.50
2018-12-06T19:15:12.369Z,85.60
2018-12-06T19:17:40.933Z,85.60
2018-12-06T19:20:09.664Z,85.70
2018-12-06T19:22:38.365Z,85.80
2018-12-06T19:25:07.209Z,85.90
2018-12-06T19:27:35.866Z,85.90
2018-12-06T19:30:05.453Z,86.00
2018-12-06T19:32:33.997Z,86.70
2018-12-06T19:35:02.809Z,86.10
2018-12-06T19:37:31.386Z,86.10
2018-12-06T19:39:59.937Z,86.20
2018-12-06T19:42:28.518Z,86.60
2018-12-06T19:44:57.037Z,86.50
2018-12-06T19:47:25.576Z,86.30
2018-12-06T19:49:54.253Z,86.40
2018-12-06T19:52:22.913Z,86.40
2018-12-06T19:54:51.472Z,86.50
2018-12-06T19:57:20.037Z,86.40
2018-12-06T19:59:48.578Z,86.60
2018-12-06T20:02:17.157Z,86.50
2018-12-06T20:04:45.729Z,86.60
2018-12-06T20:07:14.292Z,86.60
2018-12-06T20:09:42.845Z,86.60
2018-12-06T20:12:12.242Z,86.70
2018-12-06T20:14:40.901Z,86.70
2018-12-06T20:17:09.438Z,86.70
2018-12-06T20:19:37.953Z,86.70
2018-12-06T20:22:08.177Z,86.70
2018-12-06T20:24:36.968Z,86.70
2018-12-06T20:27:05.989Z,86.70
2018-12-06T20:29:34.585Z,86.70
2018-12-06T20:32:03.144Z,86.70
2018-12-06T20:34:31.704Z,86.70
2018-12-06T20:37:00.240Z,86.70
2018-12-06T20:39:28.996Z,86.80
2018-12-06T20:41:57.532Z,86.80
2018-12-06T20:44:26.172Z,86.80
2018-12-06T20:46:54.732Z,86.80
2018-12-06T20:49:23.311Z,86.80
2018-12-06T20:51:51.890Z,86.80
2018-12-06T20:54:20.459Z,86.90
2018-12-06T20:56:49.012Z,86.90
2018-12-06T20:59:17.587Z,87.10
2018-12-06T21:01:46.135Z,87.10
2018-12-06T21:04:14.660Z,87.20
2018-12-06T21:06:43.213Z,87.30
2018-12-06T21:09:11.743Z,87.40
2018-12-06T21:11:40.429Z,87.40
2018-12-06T21:14:09.524Z,87.50
2018-12-06T21:16:38.100Z,87.50
2018-12-06T21:19:06.639Z,87.60
2018-12-06T21:21:35.196Z,87.70
2018-12-06T21:24:03.856Z,88.10
2018-12-06T21:26:32.396Z,87.80
2018-12-06T21:29:00.967Z,87.80
2018-12-06T21:31:29.515Z,87.90
2018-12-06T21:33:58.035Z,87.90
2018-12-06T21:36:26.564Z,88.00
2018-12-06T21:38:55.104Z,88.00
2018-12-06T21:41:23.655Z,88.10
2018-12-06T21:43:52.183Z,88.00
2018-12-06T21:46:20.743Z,88.10
2018-12-06T21:48:49.312Z,88.10
2018-12-06T21:51:17.847Z,88.10
2018-12-06T21:53:46.423Z,88.30
2018-12-06T21:56:15.100Z,88.20
2018-12-06T21:58:43.679Z,88.30
2018-12-06T22:01:12.328Z,88.40
2018-12-06T22:03:40.892Z,88.50
2018-12-06T22:06:09.444Z,88.60
2018-12-06T22:08:38.020Z,88.70
2018-12-06T22:11:06.564Z,88.90
2018-12-06T22:13:35.114Z,89.20
2018-12-06T22:16:03.784Z,89.30
2018-12-06T22:18:32.335Z,89.30
2018-12-06T22:21:01.004Z,89.50
2018-12-06T22:23:29.572Z,89.70
2018-12-06T22:25:58.201Z,89.90
2018-12-06T22:28:33.806Z,90.00
2018-12-06T22:30:57.807Z,90.10
2018-12-06T22:33:26.576Z,90.10
2018-12-06T22:35:55.194Z,90.20
2018-12-06T22:38:23.779Z,90.20
2018-12-06T22:40:52.370Z,90.30
2018-12-06T22:43:20.935Z,90.30
2018-12-06T22:45:56.607Z,90.30
2018-12-06T22:48:25.195Z,90.40
2018-12-06T22:50:53.947Z,90.50
2018-12-06T22:53:22.595Z,90.50
2018-12-06T22:55:51.139Z,90.60
2018-12-06T22:58:19.703Z,90.60
2018-12-06T23:00:57.394Z,90.70
2018-12-06T23:03:26.878Z,90.70
2018-12-06T23:05:55.554Z,90.80
2018-12-06T23:08:24.176Z,90.90
2018-12-06T23:10:53.083Z,90.90
2018-12-06T23:13:21.634Z,90.90
2018-12-06T23:15:50.190Z,91.00
2018-12-06T23:18:18.859Z,91.00
2018-12-06T23:20:47.434Z,91.10
2018-12-06T23:23:15.994Z,91.10
2018-12-06T23:25:44.566Z,91.10
2018-12-06T23:28:13.611Z,91.10
2018-12-06T23:30:42.158Z,91.20
2018-12-06T23:33:10.710Z,91.30
2018-12-06T23:35:39.278Z,91.30
2018-12-06T23:38:07.865Z,91.30
2018-12-06T23:40:36.518Z,91.30
2018-12-06T23:43:05.065Z,91.40
2018-12-06T23:45:33.814Z,91.40
2018-12-06T23:48:02.397Z,91.40
2018-12-06T23:50:30.949Z,91.50
2018-12-06T23:52:59.497Z,91.50
2018-12-06T23:55:28.983Z,91.50
2018-12-06T23:57:57.536Z,91.50
